createdAt,value
2022-08-23T00:02:22.961Z,24.81
2022-08-23T00:05:03.550Z,24.87
2022-08-23T00:07:40.136Z,24.81
2022-08-23T00:10:16.544Z,24.77
2022-08-23T00:12:47.018Z,24.70
2022-08-23T00:15:20.277Z,24.65
2022-08-23T00:17:50.469Z,24.53
2022-08-23T00:20:22.393Z,24.57
2022-08-23T00:22:52.073Z,24.59
2022-08-23T00:25:24.876Z,24.65
2022-08-23T00:27:55.805Z,24.63
2022-08-23T00:30:25.992Z,24.46
2022-08-23T00:32:58.079Z,24.52
2022-08-23T00:35:28.170Z,24.64
2022-08-23T00:38:31.907Z,24.64
2022-08-23T00:40:54.967Z,24.52
2022-08-23T00:43:42.857Z,24.56
2022-08-23T00:46:35.194Z,24.57
2022-08-23T00:49:09.954Z,24.65
2022-08-23T00:51:53.121Z,24.67
2022-08-23T00:54:24.894Z,24.48
2022-08-23T00:56:58.617Z,24.49
2022-08-23T00:59:29.116Z,24.40
2022-08-23T01:01:59.758Z,24.48
2022-08-23T01:04:32.791Z,24.55
2022-08-23T01:07:07.145Z,24.43
2022-08-23T01:09:36.881Z,24.43
2022-08-23T01:12:15.188Z,24.35
2022-08-23T01:14:50.560Z,24.45
2022-08-23T01:17:25.326Z,24.48
2022-08-23T01:19:57.742Z,24.49
2022-08-23T01:22:31.294Z,24.32
2022-08-23T01:25:07.398Z,24.35
2022-08-23T01:27:42.193Z,24.39
2022-08-23T01:30:20.626Z,24.34
2022-08-23T01:32:53.424Z,24.27
2022-08-23T01:38:17.506Z,24.02
2022-08-23T01:40:51.546Z,24.08
2022-08-23T01:43:23.313Z,23.99
2022-08-23T01:45:56.437Z,23.93
2022-08-23T01:48:27.643Z,23.94
2022-08-23T01:50:58.601Z,23.83
2022-08-23T01:53:28.546Z,23.81
2022-08-23T01:56:03.288Z,23.90
2022-08-23T01:58:36.069Z,23.83
2022-08-23T02:01:06.007Z,23.84
2022-08-23T02:03:38.012Z,23.95
2022-08-23T02:06:09.013Z,23.93
2022-08-23T02:08:52.483Z,23.98
2022-08-23T02:11:28.122Z,24.06
2022-08-23T02:14:00.989Z,24.04
2022-08-23T02:16:39.556Z,24.18
2022-08-23T02:19:14.617Z,23.92
2022-08-23T02:21:45.910Z,24.23
2022-08-23T02:24:18.201Z,23.98
2022-08-23T02:26:56.853Z,24.12
2022-08-23T02:29:29.862Z,24.07
2022-08-23T02:32:02.320Z,24.17
2022-08-23T02:34:38.525Z,24.12
2022-08-23T02:37:09.382Z,24.23
2022-08-23T02:39:39.429Z,24.24
2022-08-23T02:42:14.644Z,24.30
2022-08-23T02:44:46.522Z,24.39
2022-08-23T02:47:17.571Z,24.38
2022-08-23T02:49:55.129Z,24.43
2022-08-23T02:52:24.938Z,24.34
2022-08-23T02:54:58.072Z,24.25
2022-08-23T02:57:31.571Z,24.16
2022-08-23T03:00:02.781Z,24.09
2022-08-23T03:02:33.237Z,24.03
2022-08-23T03:05:03.593Z,23.95
2022-08-23T03:07:33.842Z,23.86
2022-08-23T03:10:05.089Z,23.69
2022-08-23T03:12:40.282Z,23.70
2022-08-23T03:15:11.870Z,23.73
2022-08-23T03:17:41.890Z,23.63
2022-08-23T03:20:14.168Z,23.73
2022-08-23T03:22:54.338Z,23.70
2022-08-23T03:25:26.700Z,23.67
2022-08-23T03:28:16.992Z,23.66
2022-08-23T03:30:48.112Z,23.56
2022-08-23T03:33:18.143Z,23.71
2022-08-23T03:35:49.342Z,23.67
2022-08-23T03:38:21.381Z,23.67
2022-08-23T03:40:54.032Z,23.59
2022-08-23T03:43:27.085Z,23.64
2022-08-23T03:45:56.954Z,23.67
2022-08-23T03:48:27.562Z,23.62
2022-08-23T03:50:57.258Z,23.77
2022-08-23T03:53:27.808Z,23.62
2022-08-23T03:55:58.721Z,23.64
2022-08-23T03:58:31.007Z,23.54
2022-08-23T04:01:00.681Z,23.26
2022-08-23T04:03:30.467Z,23.09
2022-08-23T04:06:08.206Z,23.27
2022-08-23T04:08:38.079Z,23.22
2022-08-23T04:11:09.235Z,23.14
2022-08-23T04:13:43.716Z,22.93
2022-08-23T04:16:14.636Z,22.85
2022-08-23T04:18:44.572Z,22.75
2022-08-23T04:21:25.073Z,22.61
2022-08-23T04:23:55.209Z,22.37
2022-08-23T04:26:29.697Z,22.34
2022-08-23T04:29:02.470Z,22.41
2022-08-23T04:31:34.680Z,22.40
2022-08-23T04:34:05.463Z,22.36
2022-08-23T04:36:46.021Z,22.41
2022-08-23T04:39:22.340Z,22.40
2022-08-23T04:42:04.689Z,22.40
2022-08-23T04:44:37.092Z,22.55
2022-08-23T04:47:07.529Z,22.48
2022-08-23T04:49:37.421Z,22.56
2022-08-23T04:52:07.204Z,22.51
2022-08-23T04:54:36.987Z,22.54
2022-08-23T04:57:22.751Z,22.63
2022-08-23T04:59:55.052Z,22.68
2022-08-23T05:02:25.258Z,22.74
2022-08-23T05:04:55.808Z,22.91
2022-08-23T05:07:41.477Z,22.91
2022-08-23T05:10:18.204Z,22.92
2022-08-23T05:12:51.859Z,22.77
2022-08-23T05:15:26.307Z,22.74
2022-08-23T05:18:01.825Z,22.65
2022-08-23T05:20:32.612Z,22.64
2022-08-23T05:23:03.441Z,22.65
2022-08-23T05:25:54.249Z,22.74
2022-08-23T05:28:31.116Z,22.67
2022-08-23T05:31:11.900Z,22.85
2022-08-23T05:34:02.445Z,22.87
2022-08-23T05:36:56.034Z,23.02
2022-08-23T05:39:36.335Z,23.02
2022-08-23T05:42:14.011Z,23.02
2022-08-23T05:44:45.644Z,23.05
2022-08-23T05:47:23.638Z,23.10
2022-08-23T05:50:13.905Z,23.04
2022-08-23T05:52:46.755Z,23.07
2022-08-23T05:55:19.244Z,23.02
2022-08-23T05:57:59.265Z,23.11
2022-08-23T06:00:37.415Z,23.19
2022-08-23T06:03:11.765Z,23.25
2022-08-23T06:05:43.534Z,23.44
2022-08-23T06:08:14.552Z,23.30
2022-08-23T06:10:44.387Z,23.25
2022-08-23T06:13:23.669Z,23.33
2022-08-23T06:15:53.631Z,23.25
2022-08-23T06:18:26.160Z,23.33
2022-08-23T06:21:04.035Z,23.68
2022-08-23T06:23:47.169Z,24.00
2022-08-23T06:26:21.501Z,24.31
2022-08-23T06:28:55.191Z,24.31
2022-08-23T06:31:40.043Z,24.30
2022-08-23T06:34:21.282Z,24.56
2022-08-23T06:37:12.005Z,24.43
2022-08-23T06:40:00.596Z,24.47
2022-08-23T06:42:49.708Z,25.11
2022-08-23T06:45:33.935Z,25.11
2022-08-23T06:48:07.184Z,24.63
2022-08-23T06:50:43.805Z,26.30
2022-08-23T06:53:34.064Z,26.26
2022-08-23T06:56:25.340Z,26.51
2022-08-23T06:59:07.391Z,26.65
2022-08-23T07:02:05.353Z,26.84
2022-08-23T07:04:58.366Z,26.92
2022-08-23T07:07:44.518Z,26.45
2022-08-23T07:10:16.708Z,26.87
2022-08-23T07:12:46.973Z,26.95
2022-08-23T07:15:17.111Z,26.89
2022-08-23T07:17:48.515Z,26.63
2022-08-23T07:20:18.311Z,26.54
2022-08-23T07:22:50.835Z,26.45
2022-08-23T07:25:20.812Z,26.23
2022-08-23T07:27:55.254Z,26.21
2022-08-23T07:30:25.402Z,26.30
2022-08-23T07:32:56.396Z,26.14
2022-08-23T07:35:31.141Z,26.14
2022-08-23T07:38:04.756Z,26.18
2022-08-23T07:40:38.981Z,26.23
2022-08-23T07:43:10.344Z,25.98
2022-08-23T07:45:43.371Z,25.93
2022-08-23T07:48:20.443Z,25.84
2022-08-23T07:51:15.349Z,25.99
2022-08-23T07:53:48.184Z,26.00
2022-08-23T07:56:22.146Z,26.22
2022-08-23T07:59:23.850Z,25.88
2022-08-23T08:02:12.191Z,26.06
2022-08-23T08:04:43.184Z,26.20
2022-08-23T08:07:21.358Z,26.36
2022-08-23T08:10:01.589Z,26.55
2022-08-23T08:12:32.985Z,26.59
2022-08-23T08:15:10.759Z,26.69
2022-08-23T08:17:42.889Z,26.36
2022-08-23T08:20:13.186Z,26.64
2022-08-23T08:23:01.221Z,26.64
2022-08-23T08:26:08.930Z,26.64
2022-08-23T08:28:40.587Z,26.61
2022-08-23T08:31:11.269Z,26.57
2022-08-23T08:33:41.689Z,26.88
2022-08-23T08:36:31.991Z,26.97
2022-08-23T08:39:01.984Z,26.95
2022-08-23T08:41:46.245Z,27.09
2022-08-23T08:44:27.357Z,27.02
2022-08-23T08:46:59.404Z,26.94
2022-08-23T08:49:40.941Z,27.07
2022-08-23T08:52:19.646Z,27.34
2022-08-23T08:54:53.371Z,27.46
2022-08-23T08:57:28.396Z,27.62
2022-08-23T09:00:03.440Z,27.75
2022-08-23T09:02:37.433Z,27.85
2022-08-23T09:05:15.322Z,27.77
2022-08-23T09:08:01.272Z,27.79
2022-08-23T09:10:58.132Z,28.13
2022-08-23T09:13:56.604Z,28.15
2022-08-23T09:16:37.995Z,28.31
2022-08-23T09:19:08.041Z,28.47
2022-08-23T09:21:46.170Z,28.56
2022-08-23T09:24:16.629Z,28.72
2022-08-23T09:27:07.019Z,28.87
2022-08-23T09:29:41.862Z,28.95
2022-08-23T09:32:29.949Z,29.01
2022-08-23T09:35:13.336Z,28.94
2022-08-23T09:38:00.739Z,29.26
2022-08-23T09:40:41.059Z,29.25
2022-08-23T09:43:15.875Z,29.43
2022-08-23T09:46:01.995Z,29.57
2022-08-23T09:48:40.025Z,29.52
2022-08-23T09:51:21.212Z,29.62
2022-08-23T09:53:55.211Z,29.59
2022-08-23T09:56:27.897Z,29.65
2022-08-23T09:58:57.743Z,29.64
2022-08-23T10:01:42.644Z,29.66
2022-08-23T10:04:18.783Z,29.78
2022-08-23T10:06:48.851Z,29.93
2022-08-23T10:09:26.973Z,29.93
2022-08-23T10:11:59.208Z,30.25
2022-08-23T10:14:33.067Z,30.07
2022-08-23T10:17:17.398Z,30.14
2022-08-23T10:19:57.341Z,30.13
2022-08-23T10:22:29.665Z,30.07
2022-08-23T10:25:29.293Z,30.21
2022-08-23T10:28:22.063Z,30.37
2022-08-23T10:31:00.087Z,30.39
2022-08-23T10:33:45.554Z,30.10
2022-08-23T10:36:21.233Z,30.42
2022-08-23T10:38:56.934Z,30.36
2022-08-23T10:41:50.323Z,30.46
2022-08-23T10:44:27.353Z,30.43
2022-08-23T10:47:07.549Z,30.12
2022-08-23T10:49:42.383Z,30.54
2022-08-23T10:52:19.963Z,30.49
2022-08-23T10:55:06.405Z,30.42
2022-08-23T10:57:40.764Z,30.38
2022-08-23T11:00:16.040Z,30.57
2022-08-23T11:02:56.258Z,30.32
2022-08-23T11:05:35.936Z,30.20
2022-08-23T11:08:32.597Z,30.31
2022-08-23T11:11:04.287Z,30.49
2022-08-23T11:13:37.039Z,30.41
2022-08-23T11:16:15.944Z,30.64
2022-08-23T11:18:49.742Z,30.62
2022-08-23T11:21:51.119Z,30.68
2022-08-23T11:24:51.971Z,30.59
2022-08-23T11:27:42.349Z,30.36
2022-08-23T11:30:50.065Z,30.61
2022-08-23T11:33:28.814Z,30.19
2022-08-23T11:36:21.821Z,30.44
2022-08-23T11:39:15.770Z,30.61
2022-08-23T11:42:09.159Z,30.76
2022-08-23T11:44:49.726Z,30.87
2022-08-23T11:47:30.569Z,31.04
2022-08-23T11:50:19.974Z,31.07
2022-08-23T11:53:01.661Z,31.08
2022-08-23T11:56:02.603Z,31.05
2022-08-23T11:58:48.499Z,31.13
2022-08-23T12:01:19.256Z,31.07
2022-08-23T12:03:59.963Z,31.07
2022-08-23T12:06:50.460Z,30.94
2022-08-23T12:09:56.355Z,30.97
2022-08-23T12:12:41.750Z,31.10
2022-08-23T12:15:15.898Z,31.08
2022-08-23T12:18:13.964Z,31.20
2022-08-23T12:20:48.310Z,31.22
2022-08-23T12:23:22.766Z,31.20
2022-08-23T12:26:06.305Z,31.26
2022-08-23T12:28:45.727Z,31.26
2022-08-23T12:31:24.729Z,31.48
2022-08-23T12:34:18.267Z,31.45
2022-08-23T12:36:54.329Z,31.48
2022-08-23T12:39:28.821Z,31.54
2022-08-23T12:42:09.138Z,31.57
2022-08-23T12:44:41.329Z,31.50
2022-08-23T12:47:20.231Z,31.75
2022-08-23T12:50:00.390Z,31.76
2022-08-23T12:52:33.315Z,31.70
2022-08-23T12:55:03.177Z,31.69
2022-08-23T12:57:36.510Z,31.74
2022-08-23T13:00:20.706Z,31.64
2022-08-23T13:02:55.482Z,31.65
2022-08-23T13:05:39.645Z,31.68
2022-08-23T13:08:12.478Z,31.84
2022-08-23T13:10:46.232Z,31.96
2022-08-23T13:13:19.424Z,31.98
2022-08-23T13:15:55.672Z,32.13
2022-08-23T13:18:35.556Z,32.08
2022-08-23T13:21:39.620Z,32.23
2022-08-23T13:24:37.904Z,32.33
2022-08-23T13:27:24.031Z,32.27
2022-08-23T13:29:57.464Z,32.23
2022-08-23T13:32:39.258Z,32.13
2022-08-23T13:35:29.447Z,32.40
2022-08-23T13:38:02.274Z,32.40
2022-08-23T13:40:34.662Z,32.39
2022-08-23T13:43:10.157Z,32.40
2022-08-23T13:45:48.264Z,32.35
2022-08-23T13:48:24.767Z,32.41
2022-08-23T13:50:54.763Z,32.35
2022-08-23T13:53:24.652Z,32.50
2022-08-23T13:55:58.603Z,32.57
2022-08-23T13:58:31.393Z,32.54
2022-08-23T14:01:02.429Z,32.45
2022-08-23T14:03:35.426Z,32.41
2022-08-23T14:06:04.976Z,32.37
2022-08-23T14:08:34.741Z,32.33
2022-08-23T14:11:04.412Z,32.23
2022-08-23T14:13:36.784Z,32.29
2022-08-23T14:19:54.606Z,32.38
2022-08-23T14:21:53.331Z,32.39
2022-08-23T14:24:23.666Z,32.37
2022-08-23T14:26:53.356Z,32.52
2022-08-23T14:29:23.854Z,32.62
2022-08-23T14:31:54.506Z,32.62
2022-08-23T14:34:26.838Z,32.70
2022-08-23T14:39:46.258Z,32.33
2022-08-23T14:42:18.875Z,32.50
2022-08-23T14:44:48.469Z,32.52
2022-08-23T14:47:18.240Z,32.42
2022-08-23T14:49:53.678Z,32.51
2022-08-23T14:52:24.844Z,32.42
2022-08-23T14:54:54.499Z,32.58
2022-08-23T14:57:24.153Z,32.54
2022-08-23T14:59:53.789Z,32.47
2022-08-23T15:02:27.227Z,32.64
2022-08-23T15:04:59.369Z,32.74
2022-08-23T15:07:28.963Z,32.43
2022-08-23T15:09:58.619Z,32.76
2022-08-23T15:15:21.924Z,32.78
2022-08-23T15:17:54.580Z,32.64
2022-08-23T15:20:30.050Z,32.63
2022-08-23T15:23:00.420Z,32.63
2022-08-23T15:25:33.390Z,32.79
2022-08-23T15:28:03.754Z,32.85
2022-08-23T15:30:35.275Z,33.19
2022-08-23T15:33:05.173Z,33.27
2022-08-23T15:35:42.628Z,33.33
2022-08-23T15:38:15.572Z,33.29
2022-08-23T15:40:45.640Z,32.86
2022-08-23T15:43:15.942Z,32.38
2022-08-23T15:45:45.862Z,32.50
2022-08-23T15:48:19.317Z,32.59
2022-08-23T15:50:52.089Z,32.60
2022-08-23T15:53:22.140Z,32.54
2022-08-23T15:55:52.212Z,32.42
2022-08-23T15:58:25.839Z,32.22
2022-08-23T16:00:56.822Z,31.82
2022-08-23T16:03:26.538Z,31.64
2022-08-23T16:05:58.847Z,31.73
2022-08-23T16:08:32.689Z,31.94
2022-08-23T16:11:05.066Z,31.91
2022-08-23T16:13:34.770Z,32.13
2022-08-23T16:16:06.002Z,32.05
2022-08-23T16:18:35.650Z,31.96
2022-08-23T16:21:08.168Z,31.78
2022-08-23T16:23:39.871Z,31.55
2022-08-23T16:26:11.089Z,31.39
2022-08-23T16:28:43.983Z,31.35
2022-08-23T16:31:14.466Z,31.20
2022-08-23T16:33:44.443Z,30.98
2022-08-23T16:36:18.269Z,31.14
2022-08-23T16:38:48.115Z,30.87
2022-08-23T16:41:18.068Z,31.00
2022-08-23T16:43:51.245Z,30.87
2022-08-23T16:46:22.994Z,30.85
2022-08-23T16:48:52.815Z,30.73
2022-08-23T16:51:25.542Z,30.80
2022-08-23T16:54:02.984Z,30.72
2022-08-23T16:56:33.512Z,30.76
2022-08-23T16:59:03.645Z,30.74
2022-08-23T17:01:34.537Z,30.79
2022-08-23T17:04:04.212Z,30.80
2022-08-23T17:06:36.355Z,30.80
2022-08-23T17:09:06.731Z,30.76
2022-08-23T17:11:36.942Z,30.78
2022-08-23T17:14:07.446Z,30.67
2022-08-23T17:16:37.223Z,30.44
2022-08-23T17:19:07.519Z,30.57
2022-08-23T17:21:40.093Z,30.27
2022-08-23T17:24:10.363Z,30.16
2022-08-23T17:26:40.367Z,30.11
2022-08-23T17:29:12.330Z,30.06
2022-08-23T17:31:42.232Z,30.00
2022-08-23T17:34:12.014Z,30.02
2022-08-23T17:36:47.832Z,30.12
2022-08-23T17:39:19.800Z,30.10
2022-08-23T17:41:49.587Z,29.92
2022-08-23T17:44:20.449Z,29.85
2022-08-23T17:46:50.882Z,29.67
2022-08-23T17:49:22.871Z,29.69
2022-08-23T17:51:55.057Z,29.72
2022-08-23T17:54:25.230Z,29.50
2022-08-23T17:56:54.872Z,29.52
2022-08-23T17:59:25.932Z,29.43
2022-08-23T18:01:55.652Z,29.37
2022-08-23T18:04:25.421Z,29.47
2022-08-23T18:06:58.441Z,29.44
2022-08-23T18:09:28.381Z,29.38
2022-08-23T18:11:58.099Z,29.39
2022-08-23T18:14:28.191Z,29.30
2022-08-23T18:16:58.733Z,29.20
2022-08-23T18:19:28.515Z,29.15
2022-08-23T18:22:02.460Z,29.14
2022-08-23T18:24:33.353Z,29.00
2022-08-23T18:27:20.837Z,28.98
2022-08-23T18:29:52.066Z,28.88
2022-08-23T18:32:23.159Z,28.93
2022-08-23T18:34:53.451Z,28.85
2022-08-23T18:37:25.778Z,28.80
2022-08-23T18:39:55.371Z,28.71
2022-08-23T18:42:25.059Z,28.59
2022-08-23T18:44:54.711Z,28.61
2022-08-23T18:47:24.293Z,28.47
2022-08-23T18:49:53.886Z,28.48
2022-08-23T18:52:27.548Z,28.51
2022-08-23T18:55:02.822Z,28.44
2022-08-23T18:57:33.222Z,28.37
2022-08-23T19:00:02.934Z,28.37
2022-08-23T19:02:32.693Z,28.13
2022-08-23T19:05:03.074Z,28.20
2022-08-23T19:07:35.209Z,28.22
2022-08-23T19:10:06.255Z,28.08
2022-08-23T19:12:35.999Z,28.02
2022-08-23T19:15:06.163Z,27.98
2022-08-23T19:17:36.791Z,27.98
2022-08-23T19:20:09.603Z,28.02
2022-08-23T19:22:43.287Z,29.12
2022-08-23T19:25:13.166Z,28.29
2022-08-23T19:27:43.256Z,28.00
2022-08-23T19:30:16.051Z,27.82
2022-08-23T19:32:47.731Z,27.75
2022-08-23T19:35:19.287Z,27.71
2022-08-23T19:37:51.546Z,27.62
2022-08-23T19:40:21.424Z,27.53
2022-08-23T19:42:53.177Z,27.53
2022-08-23T19:45:26.006Z,27.47
2022-08-23T19:48:02.841Z,27.40
2022-08-23T19:50:32.579Z,27.38
2022-08-23T19:53:06.988Z,27.28
2022-08-23T19:55:37.794Z,27.33
2022-08-23T19:58:07.394Z,27.20
2022-08-23T20:00:43.866Z,27.34
2022-08-23T20:03:14.065Z,27.29
2022-08-23T20:05:43.879Z,27.26
2022-08-23T20:08:16.070Z,27.27
2022-08-23T20:10:46.002Z,27.17
2022-08-23T20:13:15.999Z,27.09
2022-08-23T20:15:45.593Z,27.12
2022-08-23T20:18:15.194Z,27.14
2022-08-23T20:20:45.010Z,27.11
2022-08-23T20:23:31.639Z,26.98
2022-08-23T20:26:01.257Z,26.96
2022-08-23T20:28:31.641Z,26.95
2022-08-23T20:31:08.820Z,26.93
2022-08-23T20:33:38.450Z,26.93
2022-08-23T20:36:08.178Z,26.86
2022-08-23T20:38:40.498Z,26.84
2022-08-23T20:41:11.943Z,26.85
2022-08-23T20:43:50.179Z,26.84
2022-08-23T20:46:20.002Z,26.81
2022-08-23T20:48:51.487Z,26.89
2022-08-23T20:51:22.327Z,26.84
2022-08-23T20:53:54.863Z,26.81
2022-08-23T20:56:28.204Z,26.86
2022-08-23T20:58:58.932Z,26.83
2022-08-23T21:01:28.701Z,26.73
2022-08-23T21:04:00.156Z,26.64
2022-08-23T21:06:34.006Z,26.76
2022-08-23T21:09:08.097Z,26.69
2022-08-23T21:11:37.694Z,26.59
2022-08-23T21:14:08.373Z,26.72
2022-08-23T21:16:39.269Z,26.71
2022-08-23T21:19:09.614Z,26.59
2022-08-23T21:21:41.121Z,26.75
2022-08-23T21:24:14.113Z,26.69
2022-08-23T21:26:44.946Z,27.64
2022-08-23T21:29:14.637Z,26.82
2022-08-23T21:31:44.189Z,26.62
2022-08-23T21:34:14.524Z,26.41
2022-08-23T21:36:45.134Z,26.29
2022-08-23T21:39:17.320Z,26.21
2022-08-23T21:41:48.486Z,26.19
2022-08-23T21:44:21.594Z,26.17
2022-08-23T21:46:53.218Z,26.29
2022-08-23T21:49:23.561Z,26.32
2022-08-23T21:51:54.407Z,26.32
2022-08-23T21:54:26.794Z,26.36
2022-08-23T21:56:56.348Z,26.38
2022-08-23T21:59:26.862Z,26.31
2022-08-23T22:01:56.597Z,26.25
2022-08-23T22:04:26.385Z,26.18
2022-08-23T22:06:57.239Z,26.13
2022-08-23T22:09:32.599Z,25.96
2022-08-23T22:12:03.535Z,25.97
2022-08-23T22:14:33.985Z,25.98
2022-08-23T22:17:03.746Z,25.89
2022-08-23T22:19:33.375Z,25.74
2022-08-23T22:22:02.971Z,25.30
2022-08-23T22:24:35.175Z,26.24
2022-08-23T22:27:04.802Z,25.58
2022-08-23T22:29:34.683Z,25.00
2022-08-23T22:32:04.731Z,24.78
2022-08-23T22:34:34.294Z,24.55
2022-08-23T22:37:04.002Z,24.37
2022-08-23T22:39:36.482Z,24.80
2022-08-23T22:42:06.301Z,24.54
2022-08-23T22:44:41.737Z,24.75
2022-08-23T22:47:11.551Z,24.55
2022-08-23T22:49:41.442Z,24.53
2022-08-23T22:52:12.555Z,24.52
2022-08-23T22:54:44.696Z,24.28
2022-08-23T22:57:14.280Z,24.46
2022-08-23T22:59:44.015Z,24.48
2022-08-23T23:02:13.821Z,24.39
2022-08-23T23:04:45.666Z,24.51
2022-08-23T23:07:35.789Z,24.50
2022-08-23T23:10:08.869Z,24.27
2022-08-23T23:12:38.465Z,24.19
2022-08-23T23:15:08.867Z,24.35
2022-08-23T23:17:38.583Z,24.28
2022-08-23T23:20:21.717Z,24.12
2022-08-23T23:22:52.345Z,23.96
2022-08-23T23:25:24.821Z,24.15
2022-08-23T23:27:54.437Z,23.69
2022-08-23T23:30:24.060Z,23.85
2022-08-23T23:32:53.791Z,23.94
2022-08-23T23:35:23.680Z,24.06
2022-08-23T23:37:53.380Z,23.71
2022-08-23T23:40:28.226Z,24.03
2022-08-23T23:42:58.149Z,23.83
2022-08-23T23:45:27.786Z,23.71
2022-08-23T23:47:58.064Z,23.54
2022-08-23T23:50:28.293Z,23.46
2022-08-23T23:52:58.328Z,23.40
2022-08-23T23:55:31.551Z,23.52
2022-08-23T23:58:01.713Z,23.40
